Time;durP1;ratioP1;P1;durP2;ratioP2;P2;SDS_P1;SDS_P2;PMS_P1;PMS_P2;Temp;Humidity;BMP_temperature;BMP_pressure;BME280_temperature;BME280_humidity;BME280_pressure;Samples;Min_cycle;Max_cycle;Signal;HPM_P1;HPM_P2
2022/02/01 00:01:30;;;;;;;5.85;1.95;;;5.80;73.40;;;;;;5035647;28;20227;-87
2022/02/01 00:04:01;;;;;;;10.43;1.52;;;6.00;73.70;;;;;;5051335;28;20188;-89
2022/02/01 00:09:32;;;;;;;7.30;2.47;;;5.90;74.50;;;;;;5051329;28;20279;-88
2022/02/01 00:36:05;;;;;;;10.70;2.03;;;5.90;75.70;;;;;;5039756;28;20184;-87
2022/02/01 00:38:55;;;;;;;4.57;1.65;;;5.70;75.50;;;;;;5051355;28;20204;-87
2022/02/01 00:41:27;;;;;;;10.35;2.22;;;5.80;75.70;;;;;;5048851;28;20177;-88
2022/02/01 00:43:53;;;;;;;18.63;2.83;;;5.80;75.70;;;;;;5050515;28;20739;-88
2022/02/01 00:46:19;;;;;;;10.57;3.13;;;5.90;75.80;;;;;;5044542;28;20241;-88
2022/02/01 00:48:45;;;;;;;5.90;2.90;;;5.90;75.80;;;;;;5053106;28;20180;-89
2022/02/01 00:51:12;;;;;;;7.90;2.27;;;6.00;75.70;;;;;;5069254;28;20427;-87
2022/02/01 00:53:42;;;;;;;13.40;2.83;;;6.00;75.50;;;;;;5073797;28;20224;-88
2022/02/01 00:56:09;;;;;;;9.18;1.42;;;6.10;75.40;;;;;;5072352;28;20193;-87
2022/02/01 00:58:35;;;;;;;13.02;2.70;;;6.10;75.30;;;;;;5061589;28;20170;-89
2022/02/01 01:01:01;;;;;;;7.82;3.33;;;6.00;75.20;;;;;;5042119;28;20799;-89
2022/02/01 01:03:27;;;;;;;10.32;2.10;;;6.00;75.30;;;;;;5048996;28;20296;-89
2022/02/01 01:05:53;;;;;;;9.23;2.33;;;6.10;75.40;;;;;;5043127;28;20212;-89
2022/02/01 01:08:20;;;;;;;9.50;2.00;;;6.10;75.30;;;;;;5040396;28;20173;-89
2022/02/01 01:10:46;;;;;;;16.17;2.17;;;6.10;75.40;;;;;;5044166;28;20428;-89
2022/02/01 01:16:19;;;;;;;13.27;1.70;;;6.10;75.70;;;;;;5059425;28;20230;-87
2022/02/01 01:43:57;;;;;;;6.78;2.63;;;6.00;76.40;;;;;;5043005;28;20212;-87
2022/02/01 01:54:23;;;;;;;10.60;2.60;;;5.80;76.70;;;;;;5038183;28;20161;-89
2022/02/01 01:56:50;;;;;;;13.65;2.33;;;5.80;76.80;;;;;;5036438;28;20697;-88
2022/02/01 01:59:16;;;;;;;5.75;2.08;;;5.90;76.90;;;;;;5047738;28;20196;-88
2022/02/01 02:01:42;;;;;;;9.47;2.83;;;6.10;76.50;;;;;;5057472;28;20185;-88
2022/02/01 02:04:09;;;;;;;9.00;1.95;;;6.00;76.00;;;;;;5055000;28;20211;-88
2022/02/01 02:06:37;;;;;;;13.15;2.35;;;5.90;75.90;;;;;;5042266;28;20205;-88
2022/02/01 02:09:05;;;;;;;11.13;2.45;;;5.90;75.90;;;;;;5058642;28;20645;-87
2022/02/01 02:14:43;;;;;;;7.57;2.40;;;6.00;75.40;;;;;;5047621;28;20162;-88
2022/02/01 02:17:09;;;;;;;10.82;2.45;;;6.00;75.10;;;;;;5038598;28;20181;-88
2022/02/01 02:19:34;;;;;;;12.60;3.27;;;6.00;75.00;;;;;;5042685;28;20623;-88
2022/02/01 02:22:04;;;;;;;10.90;3.10;;;5.90;74.30;;;;;;5056466;28;20193;-88
2022/02/01 02:24:38;;;;;;;11.23;3.17;;;5.80;73.90;;;;;;5037215;28;20544;-88
2022/02/01 02:27:05;;;;;;;9.50;2.50;;;5.90;73.80;;;;;;5052734;28;20200;-88
2022/02/01 02:29:31;;;;;;;8.35;2.83;;;6.00;73.40;;;;;;5054634;28;20173;-88
2022/02/01 02:31:58;;;;;;;16.95;3.45;;;6.00;73.00;;;;;;5037095;28;20201;-87
2022/02/01 02:34:24;;;;;;;9.43;3.33;;;5.90;72.80;;;;;;5037217;28;20520;-88
2022/02/01 02:36:56;;;;;;;13.18;3.97;;;5.90;72.70;;;;;;5056594;28;20188;-88
2022/02/01 02:39:50;;;;;;;5.57;2.08;;;6.00;72.70;;;;;;5058038;28;20552;-88
2022/02/01 02:42:32;;;;;;;11.93;3.00;;;5.90;72.40;;;;;;5037482;28;20542;-88
2022/02/01 02:45:12;;;;;;;9.45;3.22;;;5.90;72.30;;;;;;5050582;28;20260;-87
2022/02/01 02:47:37;;;;;;;11.63;3.35;;;6.00;72.10;;;;;;5056813;28;20196;-88
2022/02/01 02:50:04;;;;;;;8.27;3.53;;;5.90;71.90;;;;;;5048174;28;20192;-88
2022/02/01 02:52:30;;;;;;;12.10;3.33;;;5.90;71.90;;;;;;5053667;28;20673;-88
2022/02/01 02:54:57;;;;;;;12.27;3.20;;;5.80;71.80;;;;;;5050670;28;20181;-89
2022/02/01 02:57:24;;;;;;;9.98;3.72;;;5.90;72.60;;;;;;5049507;28;20416;-89
2022/02/01 02:59:50;;;;;;;11.68;4.53;;;6.00;71.50;;;;;;5036607;28;20693;-89
2022/02/01 03:02:16;;;;;;;7.90;2.95;;;6.00;71.20;;;;;;5042816;28;20201;-89
2022/02/01 03:04:42;;;;;;;12.30;3.60;;;5.90;71.10;;;;;;5049541;28;20681;-89
2022/02/01 03:07:08;;;;;;;7.03;2.40;;;5.90;71.10;;;;;;5043807;28;20201;-89
2022/02/01 03:09:40;;;;;;;8.57;2.47;;;5.80;71.10;;;;;;5055644;28;20412;-87
2022/02/01 03:12:06;;;;;;;16.15;4.38;;;5.80;71.20;;;;;;5056653;28;20201;-87
2022/02/01 03:14:56;;;;;;;8.05;2.67;;;5.90;71.40;;;;;;5062685;28;20183;-88
2022/02/01 03:22:14;;;;;;;14.00;3.47;;;6.00;70.80;;;;;;5044996;28;20677;-90
2022/02/01 03:24:39;;;;;;;14.20;3.00;;;6.10;70.90;;;;;;5040763;28;20189;-87
2022/02/01 03:27:06;;;;;;;12.63;2.30;;;6.00;70.80;;;;;;5051566;28;20455;-90
2022/02/01 03:29:31;;;;;;;19.50;4.53;;;6.00;71.10;;;;;;5052568;28;20177;-89
2022/02/01 03:31:57;;;;;;;15.43;2.60;;;6.00;71.30;;;;;;5063744;28;20202;-88
2022/02/01 03:34:23;;;;;;;9.00;2.50;;;6.10;71.60;;;;;;5068752;28;20174;-89
2022/02/01 03:36:49;;;;;;;11.38;2.45;;;6.00;71.50;;;;;;5045229;28;20197;-88
2022/02/01 03:39:16;;;;;;;12.93;4.27;;;6.20;71.70;;;;;;5047515;28;20181;-88
2022/02/01 03:41:41;;;;;;;5.72;2.65;;;6.00;71.70;;;;;;5038265;28;20273;-88
2022/02/01 03:44:07;;;;;;;14.60;3.43;;;5.90;72.20;;;;;;5038930;28;20654;-88
2022/02/01 03:46:33;;;;;;;10.27;2.60;;;6.00;72.60;;;;;;5047841;28;20452;-89
2022/02/01 03:48:59;;;;;;;11.50;3.15;;;6.00;72.70;;;;;;5036323;28;20421;-88
2022/02/01 03:51:25;;;;;;;16.70;4.20;;;6.00;72.90;;;;;;5037878;28;20268;-88
2022/02/01 03:53:50;;;;;;;13.60;3.20;;;5.90;73.40;;;;;;5049501;28;20452;-89
2022/02/01 03:56:16;;;;;;;19.00;3.87;;;5.90;73.80;;;;;;5038933;28;20548;-88
2022/02/01 03:58:42;;;;;;;23.10;5.37;;;6.00;74.00;;;;;;5054806;28;20230;-87
2022/02/01 04:01:08;;;;;;;9.87;3.13;;;5.90;74.50;;;;;;5055473;28;20428;-88
2022/02/01 04:03:34;;;;;;;10.20;2.73;;;6.00;74.70;;;;;;5065121;28;20197;-89
2022/02/01 04:05:59;;;;;;;14.90;3.43;;;6.10;74.90;;;;;;5060485;28;20976;-88
2022/02/01 04:08:25;;;;;;;10.33;3.10;;;6.00;75.10;;;;;;5033807;28;20459;-88
2022/02/01 04:10:51;;;;;;;13.13;4.10;;;6.00;75.50;;;;;;5034535;28;20185;-88
2022/02/01 04:13:18;;;;;;;14.48;3.45;;;6.00;76.00;;;;;;5033984;28;20824;-88
2022/02/01 04:15:44;;;;;;;11.50;3.22;;;6.00;76.30;;;;;;5050381;28;20177;-89
2022/02/01 04:18:11;;;;;;;12.53;3.63;;;6.10;76.70;;;;;;5036961;28;20177;-89
2022/02/01 04:20:37;;;;;;;18.70;3.90;;;6.10;76.70;;;;;;5043959;28;20416;-88
2022/02/01 04:23:03;;;;;;;8.00;4.68;;;6.00;76.80;;;;;;5043658;28;20200;-88
2022/02/01 04:25:29;;;;;;;20.40;4.97;;;6.00;77.20;;;;;;5035397;28;20722;-88
2022/02/01 04:27:55;;;;;;;23.83;4.03;;;6.10;77.50;;;;;;5038564;28;20258;-88
2022/02/01 04:30:21;;;;;;;11.83;4.60;;;6.00;77.60;;;;;;5049666;28;20184;-88
2022/02/01 04:32:55;;;;;;;11.32;3.70;;;6.00;77.80;;;;;;5053299;28;20432;-88
2022/02/01 04:35:23;;;;;;;20.30;4.55;;;6.10;78.10;;;;;;5055679;28;20668;-86
2022/02/01 04:37:54;;;;;;;12.80;4.60;;;6.10;78.30;;;;;;5059747;28;20192;-86
2022/02/01 04:40:20;;;;;;;23.35;5.05;;;6.20;78.40;;;;;;5051747;28;20182;-87
2022/02/01 04:42:46;;;;;;;12.48;4.55;;;6.10;78.90;;;;;;5040303;28;20224;-88
2022/02/01 04:45:18;;;;;;;15.63;4.80;;;6.20;79.30;;;;;;5037419;28;20673;-88
2022/02/01 04:47:45;;;;;;;14.27;5.18;;;6.10;80.10;;;;;;5049072;28;20197;-89
2022/02/01 04:50:15;;;;;;;12.18;4.80;;;6.20;80.50;;;;;;5048956;28;20189;-88
2022/02/01 04:52:44;;;;;;;12.43;4.40;;;6.00;80.90;;;;;;5034773;28;20710;-88
2022/02/01 04:55:10;;;;;;;15.55;5.38;;;6.10;81.30;;;;;;5032911;28;20182;-88
2022/02/01 04:57:42;;;;;;;23.92;6.80;;;6.10;81.70;;;;;;5043505;28;20184;-88
2022/02/01 05:00:08;;;;;;;15.65;5.88;;;6.10;82.10;;;;;;5035578;28;20193;-88
2022/02/01 05:02:34;;;;;;;19.13;5.35;;;6.10;82.30;;;;;;5051154;28;20570;-87
2022/02/01 05:05:00;;;;;;;19.20;6.67;;;6.20;82.40;;;;;;5053380;28;20188;-88
2022/02/01 05:07:25;;;;;;;14.70;5.80;;;6.10;82.60;;;;;;5053915;28;20193;-88
2022/02/01 05:09:51;;;;;;;13.50;6.00;;;6.10;82.80;;;;;;5047628;28;20170;-88
2022/02/01 05:12:18;;;;;;;23.37;7.43;;;6.10;83.10;;;;;;5032499;28;20193;-88
2022/02/01 05:14:44;;;;;;;21.73;7.68;;;6.10;83.40;;;;;;5050331;28;20423;-88
2022/02/01 05:17:10;;;;;;;18.63;6.28;;;6.00;83.90;;;;;;5040395;28;20182;-88
2022/02/01 05:22:09;;;;;;;18.10;6.95;;;6.10;84.60;;;;;;5055832;28;20436;-88
2022/02/01 05:24:36;;;;;;;24.98;7.78;;;6.00;84.70;;;;;;5044888;28;20277;-88
2022/02/01 05:27:05;;;;;;;24.45;8.95;;;6.00;85.00;;;;;;5035159;28;20206;-87
2022/02/01 05:29:30;;;;;;;18.50;7.82;;;6.10;85.10;;;;;;5034493;28;20182;-88
2022/02/01 05:32:01;;;;;;;25.40;8.03;;;6.10;85.10;;;;;;5035577;28;20224;-88
2022/02/01 05:34:26;;;;;;;15.00;7.82;;;6.20;85.30;;;;;;5038624;28;20174;-88
2022/02/01 05:36:52;;;;;;;23.20;8.03;;;6.10;85.40;;;;;;5043511;28;20638;-87
2022/02/01 05:39:23;;;;;;;25.67;9.40;;;6.00;85.50;;;;;;5046223;28;20352;-86
2022/02/01 05:41:52;;;;;;;24.48;8.07;;;6.10;85.70;;;;;;5039694;28;20205;-88
2022/02/01 05:44:18;;;;;;;22.38;7.00;;;5.90;85.90;;;;;;5046535;28;20170;-88
2022/02/01 05:46:44;;;;;;;24.77;8.20;;;5.90;86.20;;;;;;5044223;28;20198;-88
2022/02/01 05:49:10;;;;;;;25.07;9.13;;;6.00;86.50;;;;;;5044049;28;20200;-88
2022/02/01 05:51:36;;;;;;;27.13;7.78;;;6.00;86.70;;;;;;5052986;28;20169;-89
2022/02/01 05:54:03;;;;;;;18.67;8.80;;;6.20;86.70;;;;;;5051954;28;20184;-86
2022/02/01 05:56:29;;;;;;;19.95;7.35;;;6.20;86.70;;;;;;5053340;28;20188;-86
2022/02/01 05:58:55;;;;;;;22.65;9.18;;;6.30;86.70;;;;;;5036571;28;20603;-88
2022/02/01 06:01:21;;;;;;;16.57;9.63;;;6.30;86.50;;;;;;5050288;28;20183;-89
2022/02/01 06:03:47;;;;;;;23.17;9.70;;;6.20;86.50;;;;;;5047572;28;20360;-89
2022/02/01 06:06:14;;;;;;;27.45;9.52;;;6.30;86.70;;;;;;5045062;28;20212;-89
2022/02/01 06:08:40;;;;;;;19.98;8.13;;;6.30;86.50;;;;;;5064787;28;20212;-88
2022/02/01 06:11:06;;;;;;;25.30;10.50;;;6.30;86.60;;;;;;5067574;28;20178;-89
2022/02/01 06:13:36;;;;;;;22.77;10.20;;;6.40;86.60;;;;;;5062106;28;20225;-89
2022/02/01 06:16:06;;;;;;;27.55;11.30;;;6.30;86.40;;;;;;5051780;28;20146;-89
2022/02/01 06:18:33;;;;;;;27.52;10.95;;;6.40;86.20;;;;;;5072066;28;20173;-89
2022/02/01 06:21:00;;;;;;;22.45;11.13;;;6.40;86.20;;;;;;5038546;28;20189;-89
2022/02/01 06:23:26;;;;;;;31.30;12.63;;;6.20;86.20;;;;;;5037620;28;20221;-88
2022/02/01 06:25:55;;;;;;;22.70;10.98;;;6.20;86.40;;;;;;5039776;28;20188;-88
2022/02/01 06:28:23;;;;;;;33.10;12.00;;;6.10;86.60;;;;;;5034659;28;20182;-88
2022/02/01 06:30:49;;;;;;;22.00;11.85;;;6.20;86.90;;;;;;5035200;28;20196;-89
2022/02/01 06:33:16;;;;;;;24.38;11.63;;;6.30;87.00;;;;;;5039830;28;20789;-88
2022/02/01 06:35:41;;;;;;;25.23;13.07;;;6.20;86.90;;;;;;5055672;28;20169;-88
2022/02/01 06:38:08;;;;;;;29.20;12.37;;;6.40;86.90;;;;;;5055614;28;20183;-89
2022/02/01 06:40:34;;;;;;;21.55;12.45;;;6.20;86.80;;;;;;5037926;28;20543;-89
2022/02/01 06:43:01;;;;;;;31.35;13.70;;;6.30;87.00;;;;;;5042584;28;20229;-89
2022/02/01 06:45:26;;;;;;;20.13;11.82;;;6.30;87.10;;;;;;5044502;28;20200;-89
2022/02/01 06:47:53;;;;;;;23.67;11.97;;;6.20;87.10;;;;;;5038269;28;20205;-89
2022/02/01 06:50:21;;;;;;;23.02;11.65;;;6.30;87.20;;;;;;5037533;28;20513;-88
2022/02/01 06:52:56;;;;;;;25.85;11.77;;;6.30;87.30;;;;;;5054648;28;20212;-88
2022/02/01 06:55:33;;;;;;;33.42;12.32;;;6.30;87.40;;;;;;5044747;28;20235;-88
2022/02/01 06:58:03;;;;;;;25.48;13.70;;;6.30;88.20;;;;;;5055392;28;20197;-88
2022/02/01 07:00:30;;;;;;;22.30;11.85;;;6.40;87.60;;;;;;5052519;28;20686;-88
2022/02/01 07:02:56;;;;;;;23.67;12.25;;;6.20;87.70;;;;;;5034142;28;20224;-88
2022/02/01 07:05:23;;;;;;;20.85;13.00;;;6.30;87.90;;;;;;5042896;28;20566;-88
2022/02/01 07:07:50;;;;;;;29.13;12.70;;;6.30;87.90;;;;;;5042757;28;20236;-89
2022/02/01 07:10:17;;;;;;;27.67;12.15;;;6.30;88.10;;;;;;5036619;28;20235;-89
2022/02/01 07:12:42;;;;;;;34.85;13.98;;;6.20;88.10;;;;;;5054336;28;20288;-87
2022/02/01 07:15:09;;;;;;;32.70;12.70;;;6.30;88.50;;;;;;5035979;28;20697;-89
2022/02/01 07:17:52;;;;;;;20.77;10.63;;;6.30;88.50;;;;;;5036235;28;20423;-89
2022/02/01 07:20:19;;;;;;;23.15;11.50;;;6.30;88.50;;;;;;5036387;28;20182;-89
2022/02/01 07:22:47;;;;;;;26.13;13.40;;;6.40;88.60;;;;;;5036813;28;20209;-89
2022/02/01 07:25:17;;;;;;;32.47;14.98;;;6.20;88.70;;;;;;5039481;28;20174;-89
2022/02/01 07:27:47;;;;;;;20.33;11.93;;;6.20;88.80;;;;;;5053294;28;20333;-89
2022/02/01 07:30:18;;;;;;;26.90;13.23;;;6.20;89.10;;;;;;5056736;28;20173;-88
2022/02/01 07:32:44;;;;;;;28.05;12.70;;;6.20;89.40;;;;;;5041318;28;20193;-89
2022/02/01 07:35:10;;;;;;;33.57;13.80;;;6.20;89.70;;;;;;5044215;28;20249;-89
2022/02/01 07:37:36;;;;;;;25.30;13.57;;;6.20;89.80;;;;;;5044262;28;20428;-86
2022/02/01 07:40:04;;;;;;;23.77;14.65;;;6.10;90.00;;;;;;5043451;28;20186;-86
2022/02/01 07:42:30;;;;;;;20.50;13.27;;;6.20;90.20;;;;;;5045500;28;20198;-86
2022/02/01 07:45:01;;;;;;;34.90;13.53;;;6.10;90.20;;;;;;5044261;28;20192;-86
2022/02/01 07:47:27;;;;;;;27.77;13.23;;;6.20;90.40;;;;;;5036746;28;20209;-87
2022/02/01 07:49:52;;;;;;;22.93;12.63;;;6.30;90.40;;;;;;5032691;28;20177;-88
2022/02/01 07:52:19;;;;;;;31.80;14.30;;;6.40;90.30;;;;;;5031968;28;20956;-88
2022/02/01 07:54:45;;;;;;;27.70;13.40;;;6.50;90.20;;;;;;5032423;28;20439;-88
2022/02/01 07:57:11;;;;;;;21.02;12.63;;;6.50;90.20;;;;;;5039822;28;20185;-88
2022/02/01 07:59:36;;;;;;;28.67;13.70;;;6.50;90.10;;;;;;5052955;28;20192;-89
2022/02/01 08:02:04;;;;;;;27.50;13.13;;;6.40;90.00;;;;;;5053740;28;20589;-88
2022/02/01 08:04:34;;;;;;;26.88;14.60;;;6.50;90.10;;;;;;5053715;28;20420;-88
2022/02/01 08:07:03;;;;;;;23.10;13.75;;;6.40;90.10;;;;;;5053372;28;20559;-88
2022/02/01 08:09:35;;;;;;;30.30;13.15;;;6.50;90.30;;;;;;5053818;28;20230;-88
2022/02/01 08:12:03;;;;;;;27.02;13.95;;;6.50;90.40;;;;;;5054633;28;20227;-88
2022/02/01 08:17:11;;;;;;;25.05;13.80;;;6.50;90.60;;;;;;5055948;28;20181;-88
2022/02/01 08:19:58;;;;;;;26.73;11.75;;;6.50;90.70;;;;;;5054271;28;20192;-88
2022/02/01 08:23:00;;;;;;;31.58;11.57;;;6.60;90.80;;;;;;5053774;28;20207;-89
2022/02/01 08:25:14;;;;;;;23.95;12.65;;;6.60;90.70;;;;;;5054726;28;20181;-88
2022/02/01 08:27:41;;;;;;;24.98;12.60;;;6.50;90.70;;;;;;5053901;28;20205;-88
2022/02/01 08:30:08;;;;;;;26.65;13.80;;;6.50;90.90;;;;;;5038123;28;20181;-88
2022/02/01 08:32:35;;;;;;;22.27;12.43;;;6.70;90.90;;;;;;5056472;28;20193;-87
2022/02/01 08:35:01;;;;;;;23.80;12.60;;;6.70;90.80;;;;;;5061505;28;20177;-88
2022/02/01 08:37:26;;;;;;;23.27;13.37;;;6.80;90.80;;;;;;5063649;28;20276;-87
2022/02/01 08:39:52;;;;;;;24.77;12.47;;;6.70;90.80;;;;;;5055290;28;20427;-88
2022/02/01 08:42:19;;;;;;;23.63;14.97;;;6.60;91.00;;;;;;5053005;28;20572;-88
2022/02/01 08:44:45;;;;;;;25.95;14.15;;;6.60;91.30;;;;;;5053217;28;20450;-88
2022/02/01 08:47:12;;;;;;;39.35;14.93;;;6.70;91.50;;;;;;5052837;28;20235;-88
2022/02/01 08:49:38;;;;;;;24.85;12.95;;;6.80;91.50;;;;;;5053215;28;20212;-88
2022/02/01 08:52:08;;;;;;;27.15;13.70;;;7.00;91.40;;;;;;5054671;28;20264;-88
2022/02/01 08:54:36;;;;;;;25.02;12.75;;;6.90;92.10;;;;;;5054965;28;20173;-88
2022/02/01 08:57:22;;;;;;;29.02;13.40;;;7.00;91.20;;;;;;5063674;28;20200;-88
2022/02/01 08:59:49;;;;;;;21.75;13.25;;;7.00;91.10;;;;;;5068939;28;20240;-88
2022/02/01 09:02:22;;;;;;;21.02;12.70;;;7.10;91.00;;;;;;5070116;28;20205;-88
2022/02/01 09:04:48;;;;;;;21.10;13.13;;;7.10;91.00;;;;;;5062963;28;20177;-87
2022/02/01 09:07:14;;;;;;;24.85;12.20;;;7.10;90.90;;;;;;5063603;28;20209;-87
2022/02/01 09:09:40;;;;;;;26.45;12.60;;;7.10;91.00;;;;;;5062319;28;20188;-88
2022/02/01 09:12:07;;;;;;;32.13;13.13;;;7.10;91.10;;;;;;5059698;28;20197;-88
2022/02/01 09:14:33;;;;;;;33.70;12.32;;;7.20;91.00;;;;;;5056796;28;20411;-88
2022/02/01 09:17:00;;;;;;;31.20;13.00;;;7.20;91.00;;;;;;5053042;28;20177;-89
2022/02/01 09:19:31;;;;;;;24.70;13.13;;;7.20;91.00;;;;;;5052538;28;20419;-88
2022/02/01 09:21:57;;;;;;;27.38;11.98;;;7.30;91.00;;;;;;5053670;28;20208;-88
2022/02/01 09:24:24;;;;;;;29.00;12.50;;;7.40;90.90;;;;;;5052145;28;20200;-88
2022/02/01 09:26:50;;;;;;;23.95;13.18;;;7.40;90.80;;;;;;5052835;28;20272;-88
2022/02/01 09:29:20;;;;;;;18.42;11.40;;;7.30;90.80;;;;;;5052045;28;20177;-88
2022/02/01 09:31:47;;;;;;;22.90;11.25;;;7.40;90.80;;;;;;5053628;28;20187;-88
2022/02/01 09:34:13;;;;;;;19.55;11.55;;;7.40;90.60;;;;;;5051912;28;20169;-88
2022/02/01 09:36:39;;;;;;;23.50;12.90;;;7.50;90.70;;;;;;5056356;28;20211;-88
2022/02/01 09:39:07;;;;;;;21.03;11.97;;;7.40;90.60;;;;;;5071279;28;20523;-88
2022/02/01 09:41:37;;;;;;;24.75;13.50;;;7.50;90.70;;;;;;5055983;28;20264;-87
2022/02/01 09:44:04;;;;;;;23.50;13.55;;;7.50;90.80;;;;;;5052034;28;20181;-88
2022/02/01 09:46:30;;;;;;;23.23;12.50;;;7.60;90.70;;;;;;5054146;28;20205;-88
2022/02/01 09:48:56;;;;;;;23.92;13.13;;;7.60;90.60;;;;;;5053326;28;20169;-88
2022/02/01 09:51:22;;;;;;;22.65;11.38;;;7.60;90.80;;;;;;5052912;28;20178;-88
2022/02/01 09:53:48;;;;;;;24.73;12.70;;;7.60;91.00;;;;;;5051895;28;20208;-87
2022/02/01 09:56:15;;;;;;;23.97;12.90;;;7.60;91.10;;;;;;5056035;28;20212;-89
2022/02/01 09:58:41;;;;;;;22.98;13.90;;;7.60;91.30;;;;;;5052258;28;20430;-88
2022/02/01 10:01:19;;;;;;;30.60;13.73;;;7.70;91.40;;;;;;5052614;28;20185;-89
2022/02/01 10:03:46;;;;;;;26.45;12.43;;;7.70;91.40;;;;;;5053198;28;20243;-88
2022/02/01 10:06:17;;;;;;;21.42;11.27;;;7.70;91.40;;;;;;5055376;28;20665;-89
2022/02/01 10:08:46;;;;;;;27.88;12.98;;;7.70;91.40;;;;;;5057347;28;20184;-89
2022/02/01 10:11:13;;;;;;;33.28;13.07;;;7.70;91.50;;;;;;5056459;28;20675;-88
2022/02/01 10:13:43;;;;;;;26.13;13.10;;;7.70;91.60;;;;;;5056363;28;20696;-89
2022/02/01 10:16:31;;;;;;;27.05;12.85;;;7.70;91.80;;;;;;5060742;28;20177;-88
2022/02/01 10:19:08;;;;;;;25.73;14.02;;;7.60;91.90;;;;;;5057276;28;20201;-88
2022/02/01 10:21:34;;;;;;;19.80;12.02;;;7.70;92.20;;;;;;5056895;28;20263;-88
2022/02/01 10:24:05;;;;;;;26.38;14.40;;;7.90;92.20;;;;;;5056585;28;20727;-89
2022/02/01 10:26:33;;;;;;;34.60;13.57;;;7.80;92.10;;;;;;5056884;28;20209;-89
2022/02/01 10:37:04;;;;;;;24.30;13.80;;;8.00;92.20;;;;;;5058844;28;20586;-88
2022/02/01 10:39:33;;;;;;;28.30;14.35;;;8.00;92.20;;;;;;5059512;28;20200;-89
2022/02/01 10:42:02;;;;;;;34.28;14.43;;;8.00;92.20;;;;;;5059181;28;20201;-87
2022/02/01 10:44:38;;;;;;;31.20;13.32;;;8.00;92.10;;;;;;5058719;28;20180;-88
2022/02/01 10:47:05;;;;;;;28.40;15.32;;;8.10;92.30;;;;;;5060331;28;20205;-88
2022/02/01 10:49:33;;;;;;;26.25;14.27;;;8.20;92.30;;;;;;5057763;28;20169;-88
2022/02/01 10:52:11;;;;;;;28.08;14.05;;;8.10;92.20;;;;;;5058007;28;20325;-88
2022/02/01 10:54:38;;;;;;;34.35;14.82;;;8.10;92.40;;;;;;5059491;28;20173;-89
2022/02/01 10:57:07;;;;;;;28.67;14.27;;;8.30;92.30;;;;;;5066871;28;20332;-88
2022/02/01 10:59:35;;;;;;;22.98;12.95;;;8.40;92.10;;;;;;5065844;28;20180;-89
2022/02/01 11:02:03;;;;;;;24.10;13.98;;;8.30;92.10;;;;;;5061855;28;20288;-88
2022/02/01 11:04:34;;;;;;;22.40;13.50;;;8.20;92.10;;;;;;5060203;28;20181;-88
2022/02/01 11:06:59;;;;;;;33.08;12.93;;;8.20;92.30;;;;;;5066470;28;20588;-88
2022/02/01 11:09:31;;;;;;;27.60;13.50;;;8.30;92.40;;;;;;5064692;28;20216;-88
2022/02/01 11:12:08;;;;;;;23.27;12.57;;;8.30;92.30;;;;;;5068876;28;20586;-89
2022/02/01 11:14:43;;;;;;;24.98;13.82;;;8.30;93.10;;;;;;5065577;28;20165;-89
2022/02/01 11:17:15;;;;;;;32.13;13.90;;;8.30;92.40;;;;;;5059649;28;20288;-88
2022/02/01 11:19:58;;;;;;;24.15;13.68;;;8.30;92.30;;;;;;5057911;28;20189;-89
2022/02/01 11:22:38;;;;;;;24.75;13.88;;;8.40;92.20;;;;;;5055381;28;20311;-90
2022/02/01 11:28:07;;;;;;;25.50;13.13;;;8.40;92.30;;;;;;5063035;28;20581;-89
2022/02/01 11:30:44;;;;;;;24.23;13.63;;;8.40;92.30;;;;;;5059734;28;20205;-88
2022/02/01 11:33:12;;;;;;;24.52;11.82;;;8.50;92.40;;;;;;5061636;28;20192;-89
2022/02/01 11:35:39;;;;;;;24.05;14.65;;;8.50;92.30;;;;;;5059192;28;20170;-88
2022/02/01 11:38:15;;;;;;;27.30;14.30;;;8.50;92.10;;;;;;5064739;28;20234;-88
2022/02/01 11:40:46;;;;;;;29.83;15.50;;;8.60;92.10;;;;;;5068335;28;20185;-88
2022/02/01 11:43:13;;;;;;;30.27;14.95;;;8.50;92.10;;;;;;5069958;28;20206;-88
2022/02/01 11:46:01;;;;;;;32.17;15.93;;;8.50;92.10;;;;;;5070340;28;20193;-89
2022/02/01 11:48:36;;;;;;;27.63;15.63;;;8.50;92.20;;;;;;5063044;28;20185;-88
2022/02/01 11:51:04;;;;;;;36.90;16.90;;;8.70;92.20;;;;;;5055973;28;20176;-88
2022/02/01 11:53:37;;;;;;;38.33;16.05;;;8.60;92.00;;;;;;5056759;28;20205;-88
2022/02/01 11:56:05;;;;;;;35.85;17.33;;;8.70;92.10;;;;;;5056613;28;20178;-88
2022/02/01 11:58:37;;;;;;;34.67;17.60;;;8.80;91.80;;;;;;5061136;28;20188;-88
2022/02/01 12:01:07;;;;;;;32.28;14.38;;;8.80;91.60;;;;;;5057650;28;20216;-88
2022/02/01 12:03:39;;;;;;;34.53;17.58;;;8.70;91.50;;;;;;5058712;28;20189;-89
2022/02/01 12:06:09;;;;;;;44.60;18.30;;;8.70;91.60;;;;;;5053736;28;20193;-88
2022/02/01 12:08:38;;;;;;;32.53;18.25;;;8.80;91.60;;;;;;5058471;28;20208;-88
2022/02/01 12:11:07;;;;;;;36.45;17.52;;;8.80;91.40;;;;;;5057334;28;20181;-88
2022/02/01 12:13:35;;;;;;;42.33;18.23;;;8.90;91.40;;;;;;5056629;28;20276;-88
2022/02/01 12:16:04;;;;;;;32.15;18.00;;;8.80;91.20;;;;;;5053816;28;20182;-88
2022/02/01 12:19:03;;;;;;;30.63;17.13;;;8.90;91.20;;;;;;5054325;28;20466;-89
2022/02/01 12:21:33;;;;;;;27.05;16.55;;;8.90;90.90;;;;;;5054875;28;20311;-88
2022/02/01 12:24:03;;;;;;;39.92;17.42;;;8.90;90.90;;;;;;5063687;28;20173;-89
2022/02/01 12:26:39;;;;;;;34.67;16.30;;;8.90;90.80;;;;;;5066613;28;20204;-88
2022/02/01 12:29:08;;;;;;;28.50;16.50;;;9.00;90.70;;;;;;5053696;28;20177;-89
2022/02/01 12:31:39;;;;;;;40.17;16.60;;;9.10;90.50;;;;;;5053857;28;20181;-89
2022/02/01 12:34:12;;;;;;;39.55;16.17;;;9.30;90.40;;;;;;5053574;28;20177;-89
2022/02/01 12:36:49;;;;;;;31.48;14.25;;;9.30;90.00;;;;;;5053619;28;20185;-88
2022/02/01 12:39:33;;;;;;;34.97;14.52;;;9.40;89.80;;;;;;5054126;28;20177;-89
2022/02/01 12:42:13;;;;;;;24.80;11.60;;;9.40;89.40;;;;;;5057574;28;20373;-88
2022/02/01 12:47:18;;;;;;;26.50;12.20;;;9.60;88.90;;;;;;5055039;28;20264;-87
2022/02/01 12:49:46;;;;;;;27.42;9.15;;;9.50;88.60;;;;;;5053376;28;20212;-87
2022/02/01 12:52:32;;;;;;;23.85;10.85;;;9.40;88.40;;;;;;5053981;28;20193;-87
2022/02/01 12:55:02;;;;;;;22.25;9.02;;;9.40;88.30;;;;;;5052859;28;20176;-87
2022/02/01 12:57:30;;;;;;;23.13;9.98;;;9.60;88.40;;;;;;5053042;28;20180;-88
2022/02/01 13:00:00;;;;;;;9.82;7.68;;;9.70;88.20;;;;;;5052788;28;20173;-88
2022/02/01 13:02:32;;;;;;;21.83;8.20;;;9.70;88.00;;;;;;5054665;28;20221;-88
2022/02/01 13:05:04;;;;;;;14.45;6.38;;;9.70;87.80;;;;;;5053980;28;20189;-88
2022/02/01 13:07:46;;;;;;;12.40;6.93;;;9.70;87.70;;;;;;5054107;28;20270;-87
2022/02/01 13:15:53;;;;;;;9.85;5.15;;;9.80;87.30;;;;;;5054715;28;20184;-88
2022/02/01 13:21:06;;;;;;;14.90;4.43;;;9.90;87.10;;;;;;5053589;28;20185;-87
2022/02/01 13:23:43;;;;;;;6.80;4.10;;;10.10;86.80;;;;;;5052485;28;20205;-87
2022/02/01 13:26:11;;;;;;;16.73;4.55;;;9.90;86.10;;;;;;5052499;28;20671;-88
2022/02/01 13:28:42;;;;;;;10.88;4.40;;;10.00;86.00;;;;;;5052247;28;20177;-87
2022/02/01 13:31:14;;;;;;;15.88;4.68;;;10.00;85.90;;;;;;5062372;28;20229;-88
2022/02/01 13:33:52;;;;;;;5.80;2.97;;;10.00;85.70;;;;;;5059354;28;20212;-88
2022/02/01 13:36:18;;;;;;;8.35;4.53;;;10.10;85.70;;;;;;5058955;28;20213;-88
2022/02/01 13:38:52;;;;;;;7.35;4.40;;;10.10;85.40;;;;;;5057870;28;20181;-88
2022/02/01 13:41:20;;;;;;;9.35;3.30;;;10.10;85.40;;;;;;5059360;28;20173;-88
2022/02/01 13:43:55;;;;;;;6.35;3.90;;;10.10;85.40;;;;;;5058118;28;20219;-88
2022/02/01 13:46:28;;;;;;;8.57;4.45;;;10.20;85.30;;;;;;5057008;28;20593;-88
2022/02/01 13:48:59;;;;;;;6.13;3.70;;;10.20;85.30;;;;;;5056295;28;20189;-87
2022/02/01 13:51:25;;;;;;;17.80;4.10;;;10.20;85.20;;;;;;5056116;28;20212;-87
2022/02/01 13:54:05;;;;;;;9.77;4.33;;;10.20;84.90;;;;;;5057742;28;20201;-89
2022/02/01 13:56:35;;;;;;;15.60;3.72;;;10.30;84.90;;;;;;5058263;28;20427;-88
2022/02/01 13:59:09;;;;;;;6.85;3.53;;;10.30;84.90;;;;;;5057507;28;20267;-88
2022/02/01 14:01:41;;;;;;;7.95;3.13;;;10.40;84.60;;;;;;5056503;28;20185;-88
2022/02/01 14:04:11;;;;;;;6.53;3.28;;;10.40;84.50;;;;;;5058176;28;20189;-88
2022/02/01 14:09:27;;;;;;;6.32;3.05;;;10.50;84.20;;;;;;5058371;28;20178;-88
2022/02/01 14:12:43;;;;;;;12.52;3.38;;;10.40;84.30;;;;;;5056327;28;20275;-88
2022/02/01 14:33:31;;;;;;;11.75;3.28;;;10.30;85.10;;;;;;5056390;28;20212;-87
2022/02/01 14:35:57;;;;;;;8.73;3.40;;;10.20;85.00;;;;;;5057475;28;20173;-87
2022/02/01 14:46:15;;;;;;;10.38;3.83;;;10.50;85.10;;;;;;5058059;28;20157;-88
2022/02/01 14:48:41;;;;;;;21.23;3.70;;;10.40;84.80;;;;;;5057053;28;20200;-88
2022/02/01 14:51:09;;;;;;;11.17;3.43;;;10.50;84.80;;;;;;5055476;28;20419;-88
2022/02/01 14:53:35;;;;;;;9.00;3.55;;;10.50;84.70;;;;;;5055677;28;20439;-88
2022/02/01 14:56:12;;;;;;;4.10;2.80;;;10.50;84.50;;;;;;5055894;28;20199;-88
2022/02/01 15:05:05;;;;;;;6.05;3.53;;;10.60;84.20;;;;;;5058073;28;20623;-88
2022/02/01 15:07:11;;;;;;;5.60;3.25;;;10.60;84.00;;;;;;5065897;28;20686;-88